Time;durP1;ratioP1;P1;durP2;ratioP2;P2;SDS_P1;SDS_P2;PMS_P1;PMS_P2;Temp;Humidity;BMP_temperature;BMP_pressure;BME280_temperature;BME280_humidity;BME280_pressure;Samples;Min_cycle;Max_cycle;Signal;HPM_P1;HPM_P2
2023/02/24 00:00:53;;;;;;;26.65;9.30;;;2.30;99.90;;;;;;4993090;28;20031;-54
2023/02/24 00:03:20;;;;;;;26.83;7.72;;;2.30;99.90;;;;;;4993203;28;20046;-56
2023/02/24 00:05:48;;;;;;;18.23;7.13;;;2.30;99.90;;;;;;4991377;28;20050;-54
2023/02/24 00:08:15;;;;;;;20.92;6.90;;;2.20;99.90;;;;;;4992144;28;20384;-60
2023/02/24 00:10:42;;;;;;;17.65;6.70;;;2.20;99.90;;;;;;4992690;28;20097;-58
2023/02/24 00:13:10;;;;;;;19.13;7.05;;;2.20;99.90;;;;;;4991958;28;20329;-57
2023/02/24 00:15:37;;;;;;;16.08;6.82;;;2.10;99.90;;;;;;4993720;28;20050;-57
2023/02/24 00:18:05;;;;;;;17.58;6.72;;;2.10;99.90;;;;;;4990521;28;20389;-58
2023/02/24 00:20:32;;;;;;;22.38;6.70;;;2.10;99.90;;;;;;4994068;28;20088;-55
2023/02/24 00:22:59;;;;;;;20.30;6.90;;;2.10;99.90;;;;;;4994133;28;20042;-58
2023/02/24 00:25:26;;;;;;;20.70;6.78;;;2.00;99.90;;;;;;4994271;28;20043;-56
2023/02/24 00:27:54;;;;;;;22.55;7.70;;;2.00;99.90;;;;;;4994730;28;20556;-57
2023/02/24 00:30:22;;;;;;;19.90;6.70;;;1.90;99.90;;;;;;4994043;28;20042;-59
2023/02/24 00:32:49;;;;;;;15.18;6.10;;;2.00;99.90;;;;;;4992977;28;20054;-60
2023/02/24 00:35:16;;;;;;;21.02;6.85;;;2.00;99.90;;;;;;4993596;28;20392;-57
2023/02/24 00:37:43;;;;;;;20.98;6.38;;;1.90;99.90;;;;;;4994197;28;20043;-60
2023/02/24 00:40:10;;;;;;;21.65;6.97;;;1.90;99.90;;;;;;4994052;28;20046;-57
2023/02/24 00:42:38;;;;;;;16.48;6.18;;;1.90;99.90;;;;;;4992873;28;20049;-54
2023/02/24 00:45:09;;;;;;;20.23;6.75;;;1.90;99.90;;;;;;4994168;28;20044;-59
2023/02/24 00:47:37;;;;;;;19.25;7.43;;;1.90;99.90;;;;;;4992926;28;20145;-56
2023/02/24 00:50:04;;;;;;;17.77;6.40;;;1.80;99.90;;;;;;4992324;28;20047;-58
2023/02/24 00:52:31;;;;;;;20.30;6.10;;;1.70;99.90;;;;;;4993795;28;20046;-56
2023/02/24 00:54:58;;;;;;;20.15;6.35;;;1.70;99.90;;;;;;4994015;28;20105;-58
2023/02/24 00:57:28;;;;;;;20.63;6.05;;;1.60;99.90;;;;;;4992823;28;20133;-56
2023/02/24 00:59:57;;;;;;;21.27;6.32;;;1.60;99.90;;;;;;4993197;28;20429;-56
2023/02/24 01:02:23;;;;;;;15.55;6.22;;;1.70;99.90;;;;;;4992703;28;20441;-58
2023/02/24 01:04:51;;;;;;;20.23;6.53;;;1.70;99.90;;;;;;4992497;28;20371;-59
2023/02/24 01:07:18;;;;;;;20.13;6.90;;;1.60;99.90;;;;;;4993835;28;20104;-57
2023/02/24 01:09:45;;;;;;;13.75;5.80;;;1.60;99.90;;;;;;4993578;28;20050;-59
2023/02/24 01:14:57;;;;;;;22.27;6.07;;;1.60;99.90;;;;;;4992511;28;20464;-57
2023/02/24 01:17:24;;;;;;;18.05;6.05;;;1.60;99.90;;;;;;4992416;28;20383;-58
2023/02/24 01:19:51;;;;;;;18.67;6.65;;;1.60;99.90;;;;;;4993832;28;20046;-56
2023/02/24 01:22:18;;;;;;;15.13;6.30;;;1.50;99.90;;;;;;4992838;28;20070;-56
2023/02/24 01:24:45;;;;;;;15.10;6.65;;;1.50;99.90;;;;;;4993609;28;20046;-59
2023/02/24 01:27:12;;;;;;;20.45;6.13;;;1.50;99.90;;;;;;4993675;28;20031;-52
2023/02/24 01:29:38;;;;;;;15.90;5.78;;;1.50;99.90;;;;;;4992185;28;20050;-59
2023/02/24 01:32:11;;;;;;;22.20;6.35;;;1.50;99.90;;;;;;4992354;28;20046;-58
2023/02/24 01:34:41;;;;;;;18.40;7.50;;;1.40;99.90;;;;;;4993469;28;20042;-56
2023/02/24 01:37:08;;;;;;;20.70;6.18;;;1.40;99.90;;;;;;4993751;28;20052;-54
2023/02/24 01:39:34;;;;;;;18.30;6.25;;;1.40;99.90;;;;;;4992265;28;20042;-56
2023/02/24 01:42:01;;;;;;;18.15;6.28;;;1.40;99.90;;;;;;4993391;28;20046;-57
2023/02/24 01:44:28;;;;;;;15.93;5.75;;;1.30;99.90;;;;;;4991511;28;20043;-57
2023/02/24 01:46:55;;;;;;;20.05;7.03;;;1.40;99.90;;;;;;4991986;28;20051;-56
2023/02/24 01:49:22;;;;;;;19.50;7.18;;;1.30;99.90;;;;;;4975948;28;20046;-54
2023/02/24 01:51:48;;;;;;;21.05;6.43;;;1.40;99.90;;;;;;4992029;28;20042;-56
2023/02/24 01:54:15;;;;;;;18.35;6.43;;;1.50;99.90;;;;;;4991853;28;20133;-58
2023/02/24 01:56:42;;;;;;;19.65;6.10;;;1.50;99.90;;;;;;4991924;28;20129;-57
2023/02/24 01:59:08;;;;;;;19.88;6.88;;;1.40;99.90;;;;;;4991967;28;20489;-54
2023/02/24 02:01:39;;;;;;;16.55;6.15;;;1.40;99.90;;;;;;4993309;28;20050;-57
2023/02/24 02:04:06;;;;;;;20.77;6.18;;;1.40;99.90;;;;;;4991658;28;20137;-57
2023/02/24 02:06:33;;;;;;;17.33;5.78;;;1.50;99.90;;;;;;4993152;28;20087;-59
2023/02/24 02:09:00;;;;;;;22.33;6.75;;;1.40;99.90;;;;;;4991711;28;20050;-57
2023/02/24 02:11:27;;;;;;;21.20;6.03;;;1.30;99.90;;;;;;4992550;28;20048;-59
2023/02/24 02:13:55;;;;;;;20.23;6.32;;;1.30;99.90;;;;;;4993435;28;20039;-60
2023/02/24 02:16:24;;;;;;;18.40;6.03;;;1.20;99.90;;;;;;4995235;28;20054;-57
2023/02/24 02:18:54;;;;;;;20.60;7.28;;;1.20;99.90;;;;;;4995892;28;20466;-54
2023/02/24 02:21:22;;;;;;;17.50;5.68;;;1.20;99.90;;;;;;4996323;28;20030;-56
2023/02/24 02:23:48;;;;;;;22.52;6.35;;;1.20;99.90;;;;;;4996503;28;20104;-56
2023/02/24 02:26:18;;;;;;;18.25;6.03;;;1.20;99.90;;;;;;4995013;28;20469;-61
2023/02/24 02:28:45;;;;;;;21.25;6.30;;;1.10;99.90;;;;;;4994802;28;20116;-52
2023/02/24 02:31:12;;;;;;;23.73;6.70;;;1.10;99.90;;;;;;4994839;28;20054;-54
2023/02/24 02:33:39;;;;;;;21.30;5.90;;;1.10;99.90;;;;;;4995880;28;20457;-53
2023/02/24 02:36:05;;;;;;;17.75;5.80;;;1.20;99.90;;;;;;4996308;28;20126;-52
2023/02/24 02:38:33;;;;;;;18.08;6.30;;;1.20;99.90;;;;;;4996061;28;20490;-56
2023/02/24 02:41:01;;;;;;;18.10;6.80;;;1.20;99.90;;;;;;4995944;28;20509;-58
2023/02/24 02:43:28;;;;;;;17.58;6.28;;;1.20;99.90;;;;;;4995100;28;20042;-57
2023/02/24 02:45:56;;;;;;;20.83;5.82;;;1.20;99.90;;;;;;4996176;28;20125;-57
2023/02/24 02:48:23;;;;;;;17.83;6.68;;;1.20;99.90;;;;;;4994929;28;20057;-56
2023/02/24 02:50:49;;;;;;;18.50;5.88;;;1.20;99.90;;;;;;4996102;28;20045;-57
2023/02/24 02:53:16;;;;;;;24.70;6.85;;;1.20;99.90;;;;;;4994709;28;20436;-54
2023/02/24 02:55:43;;;;;;;21.52;6.82;;;1.20;99.90;;;;;;4995843;28;20039;-58
2023/02/24 02:58:11;;;;;;;17.70;6.53;;;1.20;99.90;;;;;;4994955;28;20046;-56
2023/02/24 03:00:40;;;;;;;23.88;6.22;;;1.20;99.90;;;;;;4995612;28;20371;-57
2023/02/24 03:03:07;;;;;;;26.52;7.00;;;1.20;99.90;;;;;;4994385;28;20054;-57
2023/02/24 03:05:36;;;;;;;16.98;5.88;;;1.20;99.90;;;;;;4995785;28;20351;-52
2023/02/24 03:08:03;;;;;;;22.75;6.10;;;1.10;99.90;;;;;;4994530;28;20050;-57
2023/02/24 03:10:33;;;;;;;17.60;6.07;;;1.20;99.90;;;;;;4994140;28;20406;-52
2023/02/24 03:12:59;;;;;;;21.45;6.57;;;1.10;99.90;;;;;;4994153;28;20125;-56
2023/02/24 03:15:27;;;;;;;24.95;7.60;;;1.10;99.90;;;;;;4994021;28;20039;-57
2023/02/24 03:17:54;;;;;;;17.20;6.15;;;1.20;99.90;;;;;;4994822;28;20045;-57
2023/02/24 03:20:21;;;;;;;23.88;7.38;;;1.20;99.90;;;;;;4995290;28;20042;-57
2023/02/24 03:22:51;;;;;;;18.05;5.72;;;1.20;99.90;;;;;;4994067;28;20047;-58
2023/02/24 03:25:18;;;;;;;18.42;6.22;;;1.20;99.90;;;;;;4992517;28;20050;-55
2023/02/24 03:27:45;;;;;;;25.67;6.75;;;1.10;99.90;;;;;;4978043;28;20046;-56
2023/02/24 03:30:12;;;;;;;20.50;7.32;;;1.10;99.90;;;;;;4993614;28;20057;-53
2023/02/24 03:32:42;;;;;;;20.02;6.25;;;1.10;99.90;;;;;;4993799;28;20410;-51
2023/02/24 03:35:09;;;;;;;24.05;6.82;;;1.00;99.90;;;;;;4995300;28;20093;-53
2023/02/24 03:37:36;;;;;;;19.50;5.85;;;1.00;99.90;;;;;;4993578;28;20050;-54
2023/02/24 03:40:10;;;;;;;19.33;6.03;;;1.00;99.90;;;;;;4993563;28;20112;-55
2023/02/24 03:42:37;;;;;;;24.75;6.50;;;1.00;99.90;;;;;;4992997;28;20042;-53
2023/02/24 03:45:05;;;;;;;24.23;5.95;;;1.10;99.90;;;;;;4993756;28;20053;-53
2023/02/24 03:47:32;;;;;;;23.58;6.43;;;1.10;99.90;;;;;;4995343;28;20133;-55
2023/02/24 03:50:00;;;;;;;12.13;4.85;;;1.00;99.90;;;;;;4977472;28;20057;-54
2023/02/24 03:52:31;;;;;;;16.35;5.88;;;1.00;99.90;;;;;;4993212;28;20043;-51
2023/02/24 03:54:58;;;;;;;19.27;5.68;;;1.10;99.90;;;;;;4993447;28;20047;-56
2023/02/24 03:57:25;;;;;;;17.80;5.90;;;1.10;99.90;;;;;;4993339;28;20484;-58
2023/02/24 03:59:52;;;;;;;19.23;5.75;;;1.10;99.90;;;;;;4993278;28;20046;-56
2023/02/24 04:02:19;;;;;;;20.35;5.63;;;1.10;99.90;;;;;;4993379;28;20401;-56
2023/02/24 04:04:48;;;;;;;20.63;6.35;;;1.20;99.90;;;;;;4992875;28;20108;-57
2023/02/24 04:07:25;;;;;;;19.33;6.30;;;1.20;99.90;;;;;;4994393;28;20073;-55
2023/02/24 04:09:52;;;;;;;21.25;6.00;;;1.20;99.90;;;;;;4994300;28;20065;-54
2023/02/24 04:12:18;;;;;;;18.52;5.93;;;1.20;99.90;;;;;;4992850;28;20042;-56
2023/02/24 04:14:48;;;;;;;15.50;5.78;;;1.20;99.90;;;;;;4992982;28;20077;-55
2023/02/24 04:17:18;;;;;;;17.63;6.13;;;1.20;99.90;;;;;;4993046;28;20042;-55
2023/02/24 04:19:46;;;;;;;16.63;5.28;;;1.20;99.90;;;;;;4992088;28;20412;-57
2023/02/24 04:22:14;;;;;;;23.85;6.22;;;1.20;99.90;;;;;;4992703;28;20493;-58
2023/02/24 04:24:41;;;;;;;23.23;6.43;;;1.20;99.90;;;;;;4992273;28;20061;-55
2023/02/24 04:27:08;;;;;;;21.45;5.60;;;1.20;99.90;;;;;;4992623;28;20042;-56
2023/02/24 04:29:39;;;;;;;19.92;5.80;;;1.20;99.90;;;;;;4993924;28;20125;-58
2023/02/24 04:32:06;;;;;;;22.00;5.53;;;1.20;99.90;;;;;;4992519;28;20046;-54
2023/02/24 04:34:34;;;;;;;23.27;6.13;;;1.20;99.90;;;;;;4992079;28;20061;-57
2023/02/24 04:37:01;;;;;;;16.52;5.97;;;1.30;99.90;;;;;;4992602;28;20042;-57
2023/02/24 04:39:28;;;;;;;20.25;6.20;;;1.30;99.90;;;;;;4991988;28;20046;-58
2023/02/24 04:41:57;;;;;;;14.18;5.22;;;1.30;99.90;;;;;;4992711;28;20075;-56
2023/02/24 04:44:25;;;;;;;12.38;5.10;;;1.30;99.90;;;;;;4992267;28;20096;-56
2023/02/24 04:46:51;;;;;;;14.40;5.32;;;1.40;99.90;;;;;;4993238;28;20039;-55
2023/02/24 04:49:18;;;;;;;14.70;5.30;;;1.40;99.90;;;;;;4994119;28;20112;-57
2023/02/24 04:51:45;;;;;;;18.42;5.65;;;1.40;99.90;;;;;;4993686;28;20054;-56
2023/02/24 04:54:16;;;;;;;16.38;5.20;;;1.50;99.90;;;;;;4993703;28;20053;-58
2023/02/24 04:56:43;;;;;;;20.63;6.95;;;1.50;99.90;;;;;;4992909;28;20038;-56
2023/02/24 04:59:10;;;;;;;20.95;5.20;;;1.50;99.90;;;;;;4993654;28;20073;-56
2023/02/24 05:01:41;;;;;;;13.65;4.90;;;1.60;99.90;;;;;;4992881;28;20077;-55
2023/02/24 05:04:07;;;;;;;14.80;4.88;;;1.70;99.90;;;;;;4993564;28;20069;-54
2023/02/24 05:06:34;;;;;;;19.95;5.53;;;1.70;99.90;;;;;;4992839;28;20038;-54
2023/02/24 05:09:10;;;;;;;18.83;5.45;;;1.80;99.90;;;;;;4993365;28;20054;-57
2023/02/24 05:11:36;;;;;;;17.33;5.15;;;1.80;99.90;;;;;;4991491;28;20050;-56
2023/02/24 05:14:03;;;;;;;14.07;5.40;;;1.80;99.90;;;;;;4987513;28;20499;-57
2023/02/24 05:16:30;;;;;;;17.70;5.40;;;1.90;99.90;;;;;;4993022;28;20034;-60
2023/02/24 05:21:42;;;;;;;20.13;5.40;;;1.90;99.90;;;;;;4992529;28;20045;-55
2023/02/24 05:24:10;;;;;;;19.08;5.70;;;1.90;99.90;;;;;;4993394;28;20045;-57
2023/02/24 05:26:36;;;;;;;13.98;4.65;;;2.00;99.90;;;;;;4993623;28;20039;-55
2023/02/24 05:29:03;;;;;;;16.42;5.68;;;2.00;99.90;;;;;;4998990;28;20057;-59
2023/02/24 05:31:30;;;;;;;19.67;5.38;;;2.10;99.90;;;;;;4993325;28;20038;-52
2023/02/24 05:33:57;;;;;;;15.68;4.93;;;2.10;99.90;;;;;;4991543;28;20057;-59
2023/02/24 05:36:23;;;;;;;16.02;4.97;;;2.20;99.90;;;;;;4993781;28;20104;-59
2023/02/24 05:38:54;;;;;;;10.98;4.43;;;2.20;99.90;;;;;;4991540;28;20077;-58
2023/02/24 05:41:22;;;;;;;17.40;5.38;;;2.20;99.90;;;;;;4993512;28;20413;-56
2023/02/24 05:43:53;;;;;;;17.23;4.70;;;2.20;99.90;;;;;;4993128;28;20046;-58
2023/02/24 05:46:26;;;;;;;20.23;5.80;;;2.20;99.90;;;;;;4991673;28;20042;-60
2023/02/24 05:48:55;;;;;;;12.57;4.97;;;2.20;99.90;;;;;;4994835;28;20490;-59
2023/02/24 05:51:23;;;;;;;14.02;5.13;;;2.30;99.90;;;;;;4996606;28;20108;-55
2023/02/24 05:53:54;;;;;;;21.38;5.18;;;2.30;99.90;;;;;;4997049;28;20045;-54
2023/02/24 05:56:21;;;;;;;15.30;4.90;;;2.30;99.90;;;;;;4996456;28;20038;-54
2023/02/24 05:58:48;;;;;;;19.50;5.50;;;2.40;99.90;;;;;;4997175;28;20540;-56
2023/02/24 06:01:15;;;;;;;11.70;4.43;;;2.40;99.90;;;;;;4996508;28;20050;-55
2023/02/24 06:03:45;;;;;;;14.88;4.78;;;2.40;99.90;;;;;;4996984;28;20375;-56
2023/02/24 06:06:12;;;;;;;15.40;4.80;;;2.50;99.90;;;;;;4996308;28;20501;-57
2023/02/24 06:08:48;;;;;;;15.32;4.47;;;2.50;99.90;;;;;;4997136;28;20460;-56
2023/02/24 06:11:16;;;;;;;15.85;4.60;;;2.60;99.90;;;;;;4996562;28;20078;-58
2023/02/24 06:13:46;;;;;;;12.40;4.38;;;2.60;99.90;;;;;;4996614;28;20458;-52
2023/02/24 06:16:13;;;;;;;19.20;4.97;;;2.60;99.90;;;;;;4996474;28;20054;-55
2023/02/24 06:18:40;;;;;;;13.38;5.00;;;2.60;99.90;;;;;;4995258;28;20078;-54
2023/02/24 06:21:07;;;;;;;16.83;5.00;;;2.60;99.90;;;;;;4996782;28;20049;-54
2023/02/24 06:23:34;;;;;;;13.32;4.55;;;2.60;99.90;;;;;;4995453;28;20599;-55
2023/02/24 06:26:01;;;;;;;14.35;4.60;;;2.70;99.90;;;;;;4995033;28;20050;-55
2023/02/24 06:28:27;;;;;;;19.27;5.00;;;2.70;99.90;;;;;;4995833;28;20441;-56
2023/02/24 06:30:55;;;;;;;13.20;4.60;;;2.70;99.90;;;;;;4996506;28;20166;-55
2023/02/24 06:33:21;;;;;;;15.55;3.95;;;2.70;99.90;;;;;;4995928;28;20128;-58
2023/02/24 06:35:48;;;;;;;15.13;4.53;;;2.70;99.90;;;;;;4994952;28;20070;-57
2023/02/24 06:38:15;;;;;;;12.95;4.53;;;2.70;99.90;;;;;;4995913;28;20049;-59
2023/02/24 06:40:42;;;;;;;14.48;4.20;;;2.70;99.90;;;;;;4996204;28;20085;-59
2023/02/24 06:43:09;;;;;;;14.77;4.28;;;2.70;99.90;;;;;;4995967;28;20470;-57
2023/02/24 06:45:36;;;;;;;15.68;4.35;;;2.70;99.90;;;;;;4995703;28;20486;-52
2023/02/24 06:48:03;;;;;;;11.75;4.03;;;2.70;99.90;;;;;;4996103;28;20054;-53
2023/02/24 06:50:31;;;;;;;12.23;4.10;;;2.70;99.90;;;;;;4995835;28;20512;-51
2023/02/24 06:52:59;;;;;;;11.07;4.05;;;2.70;99.90;;;;;;4995984;28;20104;-51
2023/02/24 06:55:26;;;;;;;14.70;4.75;;;2.70;99.90;;;;;;4995556;28;20076;-56
2023/02/24 06:57:56;;;;;;;12.40;4.22;;;2.70;99.90;;;;;;4996034;28;20048;-54
2023/02/24 07:00:26;;;;;;;14.73;6.15;;;2.70;99.90;;;;;;4995166;28;20038;-58
2023/02/24 07:02:53;;;;;;;13.38;4.50;;;2.70;99.90;;;;;;4994659;28;20042;-59
2023/02/24 07:05:22;;;;;;;10.10;3.63;;;2.80;99.90;;;;;;4995568;28;20093;-58
2023/02/24 07:07:50;;;;;;;13.23;4.57;;;2.80;99.90;;;;;;4994192;28;20133;-58
2023/02/24 07:10:16;;;;;;;12.60;3.70;;;2.80;99.90;;;;;;4995712;28;20485;-55
2023/02/24 07:12:43;;;;;;;12.98;3.72;;;2.80;99.90;;;;;;4995125;28;20054;-56
2023/02/24 07:15:12;;;;;;;13.25;4.35;;;2.90;99.90;;;;;;4994110;28;20050;-55
2023/02/24 07:17:39;;;;;;;14.68;3.70;;;2.90;99.90;;;;;;4994993;28;20548;-52
2023/02/24 07:20:10;;;;;;;8.80;3.55;;;2.90;99.90;;;;;;4995637;28;20038;-58
2023/02/24 07:22:37;;;;;;;9.57;3.70;;;2.90;99.90;;;;;;4995016;28;20482;-54
2023/02/24 07:25:05;;;;;;;12.65;4.32;;;2.90;99.90;;;;;;4995359;28;20540;-57
2023/02/24 07:27:32;;;;;;;12.70;3.88;;;2.90;99.90;;;;;;4994883;28;20042;-54
2023/02/24 07:30:04;;;;;;;15.82;3.95;;;2.90;99.90;;;;;;4995230;28;20102;-52
2023/02/24 07:32:31;;;;;;;10.63;3.50;;;2.90;99.90;;;;;;4994832;28;20064;-58
2023/02/24 07:34:58;;;;;;;13.57;4.07;;;2.90;99.90;;;;;;4995150;28;20050;-57
2023/02/24 07:37:30;;;;;;;12.15;3.65;;;2.90;99.90;;;;;;4993028;28;20100;-59
2023/02/24 07:39:57;;;;;;;12.20;3.78;;;2.90;99.90;;;;;;4994020;28;20114;-59
2023/02/24 07:42:24;;;;;;;13.70;3.83;;;2.90;99.90;;;;;;4994653;28;20073;-53
2023/02/24 07:44:53;;;;;;;13.93;3.78;;;3.00;99.90;;;;;;4993328;28;20053;-58
2023/02/24 07:47:21;;;;;;;14.18;3.60;;;3.00;99.90;;;;;;4995079;28;20097;-57
2023/02/24 07:49:50;;;;;;;11.30;3.90;;;3.00;99.90;;;;;;4994249;28;20045;-57
2023/02/24 07:52:16;;;;;;;13.80;3.30;;;3.00;99.90;;;;;;4994828;28;20046;-56
2023/02/24 07:54:43;;;;;;;13.95;4.18;;;3.00;99.90;;;;;;4994333;28;20030;-56
2023/02/24 07:57:12;;;;;;;12.93;4.43;;;3.00;99.90;;;;;;4993662;28;20133;-59
2023/02/24 07:59:45;;;;;;;11.23;3.63;;;3.10;99.90;;;;;;4994214;28;20042;-57
2023/02/24 08:02:13;;;;;;;16.65;4.18;;;3.10;99.90;;;;;;4994753;28;20508;-54
2023/02/24 08:04:43;;;;;;;11.43;3.40;;;3.20;99.90;;;;;;4994435;28;20142;-57
2023/02/24 08:07:13;;;;;;;11.88;4.55;;;3.30;99.90;;;;;;4993944;28;20084;-54
2023/02/24 08:12:09;;;;;;;37.30;5.43;;;3.40;99.90;;;;;;4993058;28;20126;-58
2023/02/24 08:14:43;;;;;;;8.73;3.88;;;3.50;99.90;;;;;;4994313;28;20042;-55
2023/02/24 08:17:10;;;;;;;8.65;3.80;;;3.50;99.90;;;;;;4994105;28;20047;-60
2023/02/24 08:19:40;;;;;;;16.50;3.60;;;3.50;99.90;;;;;;4994278;28;20043;-58
2023/02/24 08:22:18;;;;;;;10.55;3.70;;;3.60;99.90;;;;;;4993754;28;20100;-54
2023/02/24 08:24:48;;;;;;;9.25;3.40;;;3.60;99.90;;;;;;4994059;28;20409;-56
2023/02/24 08:27:18;;;;;;;9.90;4.28;;;3.70;99.90;;;;;;4993867;28;20081;-57
2023/02/24 08:30:07;;;;;;;8.98;3.42;;;3.70;99.90;;;;;;4994452;28;20432;-59
2023/02/24 08:32:32;;;;;;;9.05;3.22;;;3.70;99.90;;;;;;4993595;28;20113;-59
2023/02/24 08:35:01;;;;;;;11.43;3.95;;;3.70;99.90;;;;;;4992839;28;20072;-58
2023/02/24 08:37:32;;;;;;;10.57;3.50;;;3.80;99.90;;;;;;4993467;28;20044;-57
2023/02/24 08:39:59;;;;;;;11.50;3.80;;;3.90;99.90;;;;;;4993811;28;20459;-57
2023/02/24 08:42:33;;;;;;;17.65;4.20;;;3.90;99.90;;;;;;4994060;28;20042;-55
2023/02/24 08:45:00;;;;;;;13.73;3.38;;;4.00;99.90;;;;;;4993652;28;20100;-55
2023/02/24 08:47:29;;;;;;;17.40;3.80;;;4.00;99.90;;;;;;4993992;28;20374;-53
2023/02/24 08:49:58;;;;;;;13.40;3.60;;;4.10;99.90;;;;;;4993160;28;20046;-57
2023/02/24 08:52:26;;;;;;;9.27;3.30;;;4.10;99.90;;;;;;4993691;28;20050;-53
2023/02/24 08:54:57;;;;;;;16.92;3.72;;;4.20;99.90;;;;;;4994023;28;20137;-57
2023/02/24 08:57:24;;;;;;;32.47;4.22;;;4.30;99.90;;;;;;4993684;28;20043;-57
2023/02/24 08:59:56;;;;;;;13.00;4.07;;;4.30;99.90;;;;;;4992906;28;20039;-58
2023/02/24 09:02:25;;;;;;;9.23;3.38;;;4.40;99.90;;;;;;4993261;28;20044;-54
2023/02/24 09:04:52;;;;;;;9.05;3.50;;;4.50;99.90;;;;;;4993578;28;20490;-56
2023/02/24 09:07:19;;;;;;;12.52;4.22;;;4.60;99.90;;;;;;4994099;28;20454;-58
2023/02/24 09:09:46;;;;;;;12.40;4.18;;;4.60;99.90;;;;;;4993135;28;20034;-55
2023/02/24 09:12:23;;;;;;;12.68;3.92;;;4.70;99.90;;;;;;4993714;28;20393;-58
2023/02/24 09:14:54;;;;;;;13.13;3.97;;;4.70;99.90;;;;;;4988858;28;20457;-56
2023/02/24 09:17:38;;;;;;;11.80;3.33;;;4.80;99.90;;;;;;4992283;28;20038;-57
2023/02/24 09:22:59;;;;;;;14.45;4.05;;;5.00;99.90;;;;;;4994128;28;20050;-56
2023/02/24 09:25:39;;;;;;;10.57;3.83;;;5.10;99.90;;;;;;4990484;28;20042;-59
2023/02/24 09:28:09;;;;;;;15.00;4.47;;;5.10;99.90;;;;;;4996917;28;20047;-56
2023/02/24 09:30:36;;;;;;;11.57;4.07;;;5.20;99.90;;;;;;4992576;28;20034;-53
2023/02/24 09:33:03;;;;;;;13.65;4.38;;;5.20;99.90;;;;;;4995801;28;20035;-56
2023/02/24 09:35:35;;;;;;;15.32;4.57;;;5.30;99.90;;;;;;4996410;28;20060;-57
2023/02/24 09:38:04;;;;;;;11.32;3.90;;;5.30;99.90;;;;;;4997276;28;20049;-57
2023/02/24 09:40:38;;;;;;;11.75;4.68;;;5.40;99.90;;;;;;4994858;28;20052;-58
2023/02/24 09:43:09;;;;;;;12.07;4.88;;;5.40;99.90;;;;;;4995726;28;20057;-57
2023/02/24 09:45:38;;;;;;;11.45;4.68;;;5.50;99.90;;;;;;4996346;28;20044;-57
2023/02/24 09:48:09;;;;;;;13.18;4.50;;;5.60;99.90;;;;;;4996732;28;20121;-55
2023/02/24 09:50:45;;;;;;;13.02;4.43;;;5.60;99.90;;;;;;4996162;28;20054;-57
2023/02/24 09:53:37;;;;;;;16.23;4.85;;;5.70;99.90;;;;;;4996490;28;20050;-57
2023/02/24 09:56:07;;;;;;;31.75;17.73;;;5.80;99.90;;;;;;4995891;28;20117;-60
2023/02/24 09:58:36;;;;;;;17.80;7.80;;;5.90;99.90;;;;;;4996694;28;20533;-59
2023/02/24 10:01:22;;;;;;;49.33;6.30;;;6.00;99.90;;;;;;4995852;28;20042;-54
2023/02/24 10:03:50;;;;;;;10.95;5.68;;;6.10;99.90;;;;;;4996786;28;20482;-58
2023/02/24 10:06:19;;;;;;;15.07;4.88;;;6.10;99.90;;;;;;4996007;28;20112;-56
2023/02/24 10:08:46;;;;;;;50.88;6.38;;;6.10;99.90;;;;;;4996694;28;20046;-58
2023/02/24 10:11:14;;;;;;;21.40;5.10;;;6.20;99.90;;;;;;4995079;28;20520;-59
2023/02/24 10:13:42;;;;;;;35.42;5.20;;;6.20;99.90;;;;;;4996257;28;20413;-58
2023/02/24 10:16:09;;;;;;;37.58;5.15;;;6.30;99.90;;;;;;4996258;28;20085;-60
2023/02/24 10:18:35;;;;;;;23.23;4.80;;;6.40;99.90;;;;;;4995770;28;20046;-58
2023/02/24 10:21:02;;;;;;;13.48;4.55;;;6.40;99.90;;;;;;4994998;28;20092;-58
2023/02/24 10:23:31;;;;;;;13.20;4.70;;;6.50;99.90;;;;;;4996256;28;20067;-56
2023/02/24 10:26:02;;;;;;;13.30;4.60;;;6.60;99.90;;;;;;4995917;28;20069;-53
2023/02/24 10:28:35;;;;;;;17.02;4.90;;;6.50;99.90;;;;;;4995468;28;20057;-55
2023/02/24 10:31:08;;;;;;;26.75;5.57;;;6.60;99.90;;;;;;4995864;28;20047;-59
2023/02/24 10:33:37;;;;;;;20.77;4.68;;;6.60;99.90;;;;;;4995921;28;20049;-57
2023/02/24 10:36:07;;;;;;;13.55;4.50;;;6.60;99.90;;;;;;4994706;28;20042;-55
2023/02/24 10:38:35;;;;;;;12.68;4.90;;;6.60;99.90;;;;;;4996106;28;20046;-55
2023/02/24 10:41:05;;;;;;;14.45;4.80;;;6.60;99.90;;;;;;4996048;28;20049;-55
2023/02/24 10:43:32;;;;;;;12.23;5.00;;;6.60;99.90;;;;;;4995694;28;20121;-57
2023/02/24 10:46:05;;;;;;;19.40;8.85;;;6.60;99.90;;;;;;4994754;28;20142;-57
2023/02/24 10:48:37;;;;;;;10.75;4.80;;;6.60;99.90;;;;;;4995876;28;20053;-55
2023/02/24 10:51:08;;;;;;;;;;;6.70;99.90;;;;;;4996279;28;20100;-56
2023/02/24 10:53:39;;;;;;;10.20;4.25;;;6.80;99.90;;;;;;4995427;28;19953;-59
2023/02/24 11:01:39;;;;;;;11.35;4.63;;;7.00;99.90;;;;;;4995472;28;20505;-53
2023/02/24 11:04:52;;;;;;;16.75;5.15;;;7.10;99.90;;;;;;4994358;28;20042;-55
2023/02/24 11:07:08;;;;;;;12.15;5.30;;;7.10;99.90;;;;;;4992753;28;20070;-58
2023/02/24 11:09:42;;;;;;;15.80;4.45;;;7.10;99.90;;;;;;4994774;28;20050;-53
2023/02/24 11:17:40;;;;;;;14.40;4.75;;;7.30;99.90;;;;;;4995026;28;20053;-56
2023/02/24 11:20:09;;;;;;;10.82;4.93;;;7.30;99.90;;;;;;4991119;28;20117;-58
2023/02/24 11:22:36;;;;;;;12.20;5.53;;;7.30;99.90;;;;;;4994616;28;20042;-58
2023/02/24 11:25:03;;;;;;;13.60;5.00;;;7.30;99.90;;;;;;4995263;28;20520;-60
2023/02/24 11:27:30;;;;;;;14.82;5.68;;;7.30;99.90;;;;;;4994766;28;20104;-60
2023/02/24 11:29:57;;;;;;;17.05;6.50;;;7.30;99.90;;;;;;4995707;28;20416;-60
2023/02/24 11:32:24;;;;;;;14.80;5.50;;;7.40;99.90;;;;;;4995369;28;20034;-58
2023/02/24 11:34:51;;;;;;;14.32;5.57;;;7.30;99.90;;;;;;4995251;28;20097;-59
2023/02/24 11:37:19;;;;;;;17.25;6.18;;;7.20;99.90;;;;;;4995190;28;20042;-59
2023/02/24 11:39:46;;;;;;;14.50;6.10;;;7.20;99.90;;;;;;4994843;28;20046;-58
2023/02/24 11:42:13;;;;;;;16.15;5.88;;;7.10;99.90;;;;;;4994100;28;20148;-58
2023/02/24 11:44:40;;;;;;;14.60;6.18;;;7.10;99.90;;;;;;4994378;28;20381;-59
2023/02/24 11:47:08;;;;;;;14.27;5.22;;;7.10;99.90;;;;;;4994278;28;20069;-58
2023/02/24 11:49:35;;;;;;;18.90;6.45;;;7.20;99.90;;;;;;4993368;28;20080;-58
2023/02/24 11:52:03;;;;;;;19.63;6.07;;;7.20;99.90;;;;;;4993686;28;20046;-59
2023/02/24 11:54:30;;;;;;;19.00;6.30;;;7.30;99.90;;;;;;4994819;28;20042;-59
2023/02/24 11:57:00;;;;;;;12.32;5.93;;;7.40;99.90;;;;;;4994479;28;20412;-59
2023/02/24 11:59:27;;;;;;;13.20;5.97;;;7.40;99.90;;;;;;4993627;28;20085;-60
2023/02/24 12:01:54;;;;;;;14.20;6.07;;;7.50;99.90;;;;;;4993434;28;20054;-60
2023/02/24 12:04:21;;;;;;;16.20;6.40;;;7.50;99.90;;;;;;4993495;28;20485;-60
2023/02/24 12:06:48;;;;;;;17.45;6.55;;;7.50;99.90;;;;;;4993743;28;20433;-60
2023/02/24 12:09:15;;;;;;;14.63;6.97;;;7.60;99.90;;;;;;4993038;28;20046;-60
2023/02/24 12:11:42;;;;;;;22.33;6.95;;;7.50;99.90;;;;;;4993700;28;20125;-60
2023/02/24 12:14:09;;;;;;;18.00;6.93;;;7.50;99.90;;;;;;4994496;28;20489;-60
2023/02/24 12:16:35;;;;;;;16.38;7.10;;;7.60;99.90;;;;;;4994441;28;20448;-60
2023/02/24 12:19:03;;;;;;;16.55;7.10;;;7.70;99.90;;;;;;4993864;28;20050;-57
2023/02/24 12:21:30;;;;;;;14.90;6.80;;;7.70;99.90;;;;;;4994775;28;20042;-57
2023/02/24 12:23:57;;;;;;;16.08;7.07;;;7.70;99.90;;;;;;4994506;28;20126;-58
2023/02/24 12:26:24;;;;;;;16.20;7.40;;;7.70;99.90;;;;;;4994478;28;20042;-58
2023/02/24 12:28:50;;;;;;;15.70;7.78;;;7.70;99.90;;;;;;4994276;28;20092;-57
2023/02/24 12:31:18;;;;;;;18.23;6.93;;;7.80;99.90;;;;;;4993789;28;20456;-59
2023/02/24 12:33:48;;;;;;;16.73;7.00;;;7.90;99.90;;;;;;4992798;28;20607;-58
2023/02/24 12:36:14;;;;;;;14.15;7.00;;;8.10;99.90;;;;;;4993966;28;20042;-58
2023/02/24 12:38:42;;;;;;;11.50;6.45;;;8.20;99.90;;;;;;4994428;28;20378;-59
2023/02/24 12:41:09;;;;;;;17.88;6.40;;;8.20;99.90;;;;;;4993958;28;20046;-60
2023/02/24 12:43:36;;;;;;;12.68;6.43;;;8.30;99.90;;;;;;4994091;28;20402;-60
2023/02/24 12:46:03;;;;;;;22.08;6.57;;;8.40;99.90;;;;;;4994390;28;20068;-60
2023/02/24 12:48:30;;;;;;;14.02;6.07;;;8.50;99.90;;;;;;4993690;28;20073;-57
2023/02/24 12:50:57;;;;;;;15.77;5.90;;;8.60;99.90;;;;;;4994083;28;20053;-59
2023/02/24 12:53:24;;;;;;;11.73;6.38;;;8.60;99.90;;;;;;4992650;28;20375;-61
2023/02/24 12:55:50;;;;;;;15.25;6.22;;;8.60;99.90;;;;;;4993826;28;20129;-61
2023/02/24 12:58:17;;;;;;;12.73;5.38;;;8.60;99.90;;;;;;4993393;28;20046;-60
2023/02/24 13:00:44;;;;;;;14.70;6.20;;;8.70;99.90;;;;;;4993870;28;20120;-60
2023/02/24 13:03:11;;;;;;;17.08;6.15;;;8.80;99.90;;;;;;4993703;28;20481;-59
2023/02/24 13:05:37;;;;;;;12.82;5.22;;;9.00;99.90;;;;;;4993447;28;20063;-58
2023/02/24 13:08:04;;;;;;;11.90;5.35;;;9.10;99.90;;;;;;4993475;28;20080;-58
2023/02/24 13:10:31;;;;;;;10.98;4.95;;;9.30;99.90;;;;;;4993429;28;20073;-58
2023/02/24 13:12:58;;;;;;;9.57;4.85;;;9.50;99.90;;;;;;4993070;28;20400;-58
2023/02/24 13:15:25;;;;;;;8.60;4.60;;;9.60;99.90;;;;;;4993155;28;20540;-58